createdAt,value
2022-12-22T00:02:27.745Z,1.81
2022-12-22T00:05:13.155Z,1.82
2022-12-22T00:07:58.352Z,1.81
2022-12-22T00:10:43.434Z,1.82
2022-12-22T00:13:29.518Z,1.79
2022-12-22T00:16:14.851Z,1.80
2022-12-22T00:19:00.211Z,1.82
2022-12-22T00:21:45.874Z,1.81
2022-12-22T00:24:31.075Z,1.81
2022-12-22T00:27:16.254Z,1.82
2022-12-22T00:30:01.417Z,1.83
2022-12-22T00:32:51.166Z,1.84
2022-12-22T00:35:36.348Z,1.84
2022-12-22T00:38:23.597Z,1.87
2022-12-22T00:41:08.926Z,1.88
2022-12-22T00:43:53.907Z,1.92
2022-12-22T00:46:39.988Z,1.91
2022-12-22T00:49:25.150Z,1.91
2022-12-22T00:52:10.296Z,1.93
2022-12-22T00:54:55.536Z,1.96
2022-12-22T00:57:40.716Z,1.97
2022-12-22T01:00:28.356Z,1.99
2022-12-22T01:03:13.605Z,1.95
2022-12-22T01:05:58.724Z,1.96
2022-12-22T01:08:43.929Z,1.96
2022-12-22T01:11:29.220Z,1.99
2022-12-22T01:14:34.299Z,1.99
2022-12-22T01:17:19.399Z,2.01
2022-12-22T01:20:05.455Z,2.06
2022-12-22T01:22:50.526Z,2.06
2022-12-22T01:25:36.200Z,2.01
2022-12-22T01:28:21.307Z,2.02
2022-12-22T01:31:06.403Z,2.01
2022-12-22T01:33:51.558Z,1.99
2022-12-22T01:36:37.015Z,2.06
2022-12-22T01:39:22.161Z,2.05
2022-12-22T01:42:07.165Z,2.07
2022-12-22T01:44:52.195Z,2.06
2022-12-22T01:47:46.401Z,2.07
2022-12-22T01:50:47.812Z,2.03
2022-12-22T01:53:33.930Z,1.99
2022-12-22T01:56:19.047Z,1.99
2022-12-22T01:59:05.163Z,1.94
2022-12-22T02:01:51.567Z,1.94
2022-12-22T02:04:36.725Z,1.94
2022-12-22T02:07:23.537Z,1.97
2022-12-22T02:10:08.713Z,1.95
2022-12-22T02:13:29.210Z,1.94
2022-12-22T02:16:33.043Z,1.99
2022-12-22T02:19:24.338Z,2.00
2022-12-22T02:22:13.135Z,2.02
2022-12-22T02:25:22.224Z,2.06
2022-12-22T02:28:07.236Z,2.10
2022-12-22T02:30:52.497Z,2.12
2022-12-22T02:33:38.448Z,2.17
2022-12-22T02:36:24.108Z,2.18
2022-12-22T02:39:15.455Z,2.17
2022-12-22T02:42:13.091Z,2.18
2022-12-22T02:45:16.689Z,2.18
2022-12-22T02:48:02.915Z,2.18
2022-12-22T02:51:00.942Z,2.20
2022-12-22T02:53:46.271Z,2.22
2022-12-22T02:56:31.583Z,2.31
2022-12-22T02:59:16.722Z,2.32
2022-12-22T03:02:02.477Z,2.27
2022-12-22T03:04:47.585Z,2.26
2022-12-22T03:07:32.748Z,2.26
2022-12-22T03:10:18.008Z,2.28
2022-12-22T03:13:03.062Z,2.32
2022-12-22T03:15:48.253Z,2.31
2022-12-22T03:18:33.507Z,2.28
2022-12-22T03:21:18.697Z,2.29
2022-12-22T03:24:03.666Z,2.30
2022-12-22T03:26:30.428Z,2.30
2022-12-22T03:28:57.028Z,2.34
2022-12-22T03:31:23.683Z,2.36
2022-12-22T03:33:50.141Z,2.35
2022-12-22T03:36:16.576Z,2.35
2022-12-22T03:38:43.163Z,2.34
2022-12-22T03:41:29.578Z,2.36
2022-12-22T03:44:14.848Z,2.35
2022-12-22T03:46:41.357Z,2.32
2022-12-22T03:49:10.996Z,2.31
2022-12-22T03:51:41.611Z,2.28
2022-12-22T03:54:08.175Z,2.26
2022-12-22T03:56:34.636Z,2.24
2022-12-22T03:59:01.112Z,2.23
2022-12-22T04:01:27.700Z,2.23
2022-12-22T04:03:54.178Z,2.24
2022-12-22T04:06:32.803Z,2.24
2022-12-22T04:08:59.218Z,2.22
2022-12-22T04:11:44.406Z,1.43
2022-12-22T04:14:11.035Z,2.20
2022-12-22T04:16:37.564Z,2.20
2022-12-22T04:19:04.170Z,2.20
2022-12-22T04:21:30.603Z,2.20
2022-12-22T04:23:57.114Z,2.22
2022-12-22T04:26:23.797Z,2.24
2022-12-22T04:28:50.799Z,2.25
2022-12-22T04:31:17.291Z,2.26
2022-12-22T04:33:43.843Z,2.26
2022-12-22T04:36:10.498Z,2.26
2022-12-22T04:38:37.200Z,2.26
2022-12-22T04:41:03.676Z,2.30
2022-12-22T04:43:30.126Z,2.37
2022-12-22T04:45:56.655Z,2.40
2022-12-22T04:48:23.578Z,2.44
2022-12-22T04:50:50.611Z,2.45
2022-12-22T04:53:17.127Z,2.46
2022-12-22T04:55:47.290Z,2.46
2022-12-22T04:58:13.924Z,2.46
2022-12-22T05:00:40.403Z,2.46
2022-12-22T05:03:07.330Z,2.45
2022-12-22T05:05:34.124Z,2.42
2022-12-22T05:08:00.557Z,2.38
2022-12-22T05:10:27.089Z,2.37
2022-12-22T05:12:56.483Z,2.36
2022-12-22T05:15:22.870Z,1.82
2022-12-22T05:17:49.530Z,2.32
2022-12-22T05:20:16.221Z,2.28
2022-12-22T05:22:42.680Z,2.26
2022-12-22T05:25:09.368Z,2.20
2022-12-22T05:27:35.880Z,2.18
2022-12-22T05:30:02.322Z,2.16
2022-12-22T05:32:31.817Z,2.15
2022-12-22T05:34:58.247Z,2.10
2022-12-22T05:37:24.683Z,2.11
2022-12-22T05:39:51.343Z,2.10
2022-12-22T05:42:35.905Z,2.11
2022-12-22T05:45:03.450Z,2.10
2022-12-22T05:47:29.864Z,2.08
2022-12-22T05:49:56.443Z,2.08
2022-12-22T05:52:22.918Z,2.10
2022-12-22T05:54:49.350Z,2.13
2022-12-22T05:57:16.033Z,2.16
2022-12-22T05:59:42.540Z,2.16
2022-12-22T06:02:09.047Z,2.16
2022-12-22T06:04:35.564Z,2.14
2022-12-22T06:07:02.072Z,2.11
2022-12-22T06:09:28.654Z,2.09
2022-12-22T06:11:55.103Z,2.10
2022-12-22T06:14:21.580Z,2.12
2022-12-22T06:16:48.050Z,2.11
2022-12-22T06:19:14.477Z,2.12
2022-12-22T06:21:40.974Z,2.10
2022-12-22T06:24:07.654Z,2.10
2022-12-22T06:26:34.108Z,2.10
2022-12-22T06:29:00.632Z,2.11
2022-12-22T06:31:27.233Z,2.12
2022-12-22T06:33:54.098Z,2.14
2022-12-22T06:36:20.549Z,2.18
2022-12-22T06:38:47.124Z,2.20
2022-12-22T06:41:13.847Z,2.20
2022-12-22T06:43:40.335Z,2.19
2022-12-22T06:46:07.375Z,2.19
2022-12-22T06:48:34.033Z,2.20
2022-12-22T06:51:00.462Z,2.22
2022-12-22T06:53:27.118Z,2.22
2022-12-22T06:55:53.567Z,2.21
2022-12-22T06:58:20.013Z,2.22
2022-12-22T07:00:48.838Z,2.22
2022-12-22T07:03:15.606Z,2.21
2022-12-22T07:05:58.465Z,2.21
2022-12-22T07:08:25.070Z,2.21
2022-12-22T07:11:00.867Z,2.22
2022-12-22T07:13:28.481Z,2.21
2022-12-22T07:16:00.734Z,2.22
2022-12-22T07:18:29.170Z,2.22
2022-12-22T07:20:55.707Z,2.24
2022-12-22T07:23:22.200Z,2.25
2022-12-22T07:25:48.870Z,2.29
2022-12-22T07:28:20.667Z,2.30
2022-12-22T07:30:47.656Z,2.35
2022-12-22T07:33:14.137Z,2.36
2022-12-22T07:35:40.556Z,2.30
2022-12-22T07:38:07.004Z,2.30
2022-12-22T07:40:38.002Z,2.26
2022-12-22T07:43:08.179Z,2.28
2022-12-22T07:45:34.638Z,2.38
2022-12-22T07:48:01.206Z,2.52
2022-12-22T07:50:32.917Z,2.61
2022-12-22T07:52:59.988Z,2.72
2022-12-22T07:55:27.515Z,2.83
2022-12-22T07:57:54.072Z,2.95
2022-12-22T08:00:20.795Z,3.10
2022-12-22T08:02:50.781Z,3.26
2022-12-22T08:05:17.415Z,3.38
2022-12-22T08:07:44.092Z,3.48
2022-12-22T08:10:10.742Z,3.56
2022-12-22T08:12:37.222Z,3.61
2022-12-22T08:15:04.055Z,3.68
2022-12-22T08:17:30.539Z,3.78
2022-12-22T08:19:57.054Z,3.90
2022-12-22T08:22:26.632Z,4.07
2022-12-22T08:24:53.611Z,4.23
2022-12-22T08:27:49.475Z,4.39
2022-12-22T08:30:15.969Z,4.67
2022-12-22T08:32:44.507Z,4.94
2022-12-22T08:35:11.356Z,5.26
2022-12-22T08:37:41.458Z,5.89
2022-12-22T08:40:09.058Z,6.40
2022-12-22T08:42:35.495Z,6.68
2022-12-22T08:45:01.938Z,6.79
2022-12-22T08:47:28.445Z,6.76
2022-12-22T08:49:55.016Z,6.68
2022-12-22T08:52:21.465Z,6.53
2022-12-22T08:54:47.947Z,6.37
2022-12-22T08:57:14.431Z,6.18
2022-12-22T08:59:40.896Z,6.00
2022-12-22T09:02:10.516Z,5.81
2022-12-22T09:04:37.032Z,5.64
2022-12-22T09:07:03.701Z,5.54
2022-12-22T09:09:33.310Z,5.43
2022-12-22T09:12:00.128Z,5.31
2022-12-22T09:14:26.733Z,5.24
2022-12-22T09:16:53.248Z,5.20
2022-12-22T09:19:19.766Z,5.22
2022-12-22T09:21:46.588Z,5.26
2022-12-22T09:24:13.120Z,5.35
2022-12-22T09:26:39.763Z,5.42
2022-12-22T09:29:06.401Z,5.48
2022-12-22T09:31:33.523Z,5.51
2022-12-22T09:33:59.976Z,5.56
2022-12-22T09:36:27.457Z,5.55
2022-12-22T09:38:53.904Z,5.63
2022-12-22T09:41:26.619Z,5.60
2022-12-22T09:43:53.283Z,5.67
2022-12-22T09:46:26.098Z,5.71
2022-12-22T09:48:52.859Z,5.83
2022-12-22T09:51:26.194Z,5.90
2022-12-22T09:53:59.803Z,5.82
2022-12-22T09:56:29.287Z,5.79
2022-12-22T09:58:55.860Z,5.75
2022-12-22T10:01:29.248Z,5.72
2022-12-22T10:04:08.114Z,5.72
2022-12-22T10:06:34.825Z,5.66
2022-12-22T10:09:35.904Z,5.57
2022-12-22T10:11:57.423Z,5.57
2022-12-22T10:14:31.882Z,5.57
2022-12-22T10:17:17.098Z,5.52
2022-12-22T10:19:43.549Z,5.47
2022-12-22T10:22:24.930Z,5.46
2022-12-22T10:24:51.384Z,5.45
2022-12-22T10:27:17.996Z,5.42
2022-12-22T10:29:44.486Z,5.44
2022-12-22T10:32:15.050Z,5.43
2022-12-22T10:35:11.126Z,5.45
2022-12-22T10:37:38.190Z,5.41
2022-12-22T10:40:15.720Z,5.46
2022-12-22T10:42:48.802Z,5.45
2022-12-22T10:45:19.251Z,5.49
2022-12-22T10:47:47.222Z,5.48
2022-12-22T10:50:13.706Z,5.47
2022-12-22T10:52:40.163Z,5.44
2022-12-22T10:55:16.955Z,5.53
2022-12-22T10:57:43.442Z,5.48
2022-12-22T11:00:23.412Z,5.46
2022-12-22T11:02:53.639Z,5.45
2022-12-22T11:05:20.217Z,5.46
2022-12-22T11:07:49.799Z,5.45
2022-12-22T11:10:17.564Z,5.50
2022-12-22T11:12:47.179Z,5.51
2022-12-22T11:15:37.010Z,5.54
2022-12-22T11:18:06.484Z,5.57
2022-12-22T11:20:42.183Z,5.54
2022-12-22T11:23:24.886Z,5.46
2022-12-22T11:26:12.006Z,5.38
2022-12-22T11:28:53.751Z,5.33
2022-12-22T11:31:26.896Z,5.30
2022-12-22T11:33:59.632Z,5.26
2022-12-22T11:36:49.884Z,5.23
2022-12-22T11:39:17.507Z,5.26
2022-12-22T11:41:52.971Z,5.30
2022-12-22T11:44:31.740Z,5.29
2022-12-22T11:46:58.213Z,5.35
2022-12-22T11:49:30.732Z,5.36
2022-12-22T11:52:07.598Z,5.37
2022-12-22T11:54:37.245Z,5.40
2022-12-22T11:57:19.532Z,5.41
2022-12-22T11:59:52.169Z,5.39
2022-12-22T12:02:37.507Z,5.46
2022-12-22T12:05:19.557Z,5.46
2022-12-22T12:07:48.784Z,5.43
2022-12-22T12:10:15.395Z,5.46
2022-12-22T12:13:08.631Z,5.54
2022-12-22T12:15:38.053Z,5.66
2022-12-22T12:18:07.608Z,5.69
2022-12-22T12:20:34.070Z,5.71
2022-12-22T12:23:19.190Z,5.74
2022-12-22T12:25:54.796Z,5.76
2022-12-22T12:28:29.317Z,5.79
2022-12-22T12:30:59.571Z,5.80
2022-12-22T12:33:32.235Z,5.86
2022-12-22T12:36:01.904Z,5.93
2022-12-22T12:41:14.812Z,6.03
2022-12-22T12:43:41.408Z,6.08
2022-12-22T12:46:26.651Z,6.09
2022-12-22T12:48:56.343Z,6.06
2022-12-22T12:51:58.467Z,6.05
2022-12-22T12:54:30.640Z,5.99
2022-12-22T12:57:00.973Z,5.93
2022-12-22T12:59:42.609Z,5.90
2022-12-22T13:02:27.887Z,5.92
2022-12-22T13:05:01.267Z,5.96
2022-12-22T13:07:46.545Z,5.98
2022-12-22T13:10:24.373Z,6.01
2022-12-22T13:12:51.774Z,6.03
2022-12-22T13:15:37.407Z,6.03
2022-12-22T13:18:04.643Z,5.97
2022-12-22T13:20:32.312Z,5.93
2022-12-22T13:22:59.654Z,5.90
2022-12-22T13:25:27.769Z,5.87
2022-12-22T13:27:55.392Z,5.86
2022-12-22T13:30:21.873Z,5.86
2022-12-22T13:32:48.815Z,5.85
2022-12-22T13:35:32.534Z,5.82
2022-12-22T13:38:00.039Z,5.78
2022-12-22T13:40:33.742Z,5.74
2022-12-22T13:43:04.659Z,5.67
2022-12-22T13:45:57.566Z,5.63
2022-12-22T13:48:31.105Z,5.57
2022-12-22T13:50:58.176Z,5.54
2022-12-22T13:56:17.885Z,5.47
2022-12-22T13:58:47.585Z,5.47
2022-12-22T14:01:17.197Z,5.48
2022-12-22T14:04:03.856Z,5.46
2022-12-22T14:06:32.684Z,5.42
2022-12-22T14:09:14.544Z,5.41
2022-12-22T14:11:47.059Z,5.34
2022-12-22T14:14:18.243Z,5.29
2022-12-22T14:16:45.867Z,5.29
2022-12-22T14:19:16.469Z,5.29
2022-12-22T14:21:43.379Z,5.28
2022-12-22T14:24:11.797Z,5.28
2022-12-22T14:26:38.512Z,5.23
2022-12-22T14:29:04.991Z,5.15
2022-12-22T14:31:31.486Z,5.09
2022-12-22T14:34:05.290Z,5.05
2022-12-22T14:36:40.794Z,5.04
2022-12-22T14:39:10.687Z,5.04
2022-12-22T14:41:41.907Z,5.05
2022-12-22T14:44:32.000Z,5.06
2022-12-22T14:47:01.465Z,5.09
2022-12-22T14:49:27.909Z,5.17
2022-12-22T14:52:00.735Z,5.15
2022-12-22T14:54:27.806Z,5.11
2022-12-22T14:56:54.518Z,5.16
2022-12-22T14:59:25.881Z,5.16
2022-12-22T15:01:59.207Z,5.11
2022-12-22T15:04:25.838Z,5.07
2022-12-22T15:06:52.401Z,5.02
2022-12-22T15:09:33.347Z,4.99
2022-12-22T15:12:06.309Z,4.95
2022-12-22T15:14:38.680Z,4.92
2022-12-22T15:17:06.253Z,4.90
2022-12-22T15:19:35.973Z,4.89
2022-12-22T15:22:03.159Z,4.88
2022-12-22T15:24:29.705Z,4.85
2022-12-22T15:26:56.517Z,4.83
2022-12-22T15:29:22.952Z,4.79
2022-12-22T15:31:49.395Z,4.76
2022-12-22T15:34:22.375Z,4.70
2022-12-22T15:36:48.836Z,4.66
2022-12-22T15:39:15.825Z,4.65
2022-12-22T15:41:42.931Z,4.59
2022-12-22T15:44:09.404Z,4.59
2022-12-22T15:46:36.167Z,4.53
2022-12-22T15:49:02.703Z,4.51
2022-12-22T15:51:29.814Z,4.44
2022-12-22T15:53:56.517Z,4.40
2022-12-22T15:56:23.455Z,4.38
2022-12-22T15:58:49.865Z,4.36
2022-12-22T16:01:16.393Z,4.33
2022-12-22T16:03:42.953Z,4.31
2022-12-22T16:06:13.633Z,4.31
2022-12-22T16:08:40.283Z,4.28
2022-12-22T16:11:07.075Z,4.27
2022-12-22T16:13:33.499Z,4.22
2022-12-22T16:16:00.043Z,4.22
2022-12-22T16:18:26.720Z,4.27
2022-12-22T16:20:53.278Z,4.27
2022-12-22T16:23:20.514Z,4.27
2022-12-22T16:25:47.207Z,4.29
2022-12-22T16:28:33.360Z,4.32
2022-12-22T16:31:00.019Z,4.30
2022-12-22T16:33:26.513Z,4.30
2022-12-22T16:35:53.208Z,4.34
2022-12-22T16:38:19.929Z,4.36
2022-12-22T16:40:47.335Z,4.36
2022-12-22T16:46:02.183Z,4.39
2022-12-22T16:48:30.763Z,4.42
2022-12-22T16:50:57.273Z,4.40
2022-12-22T16:53:23.771Z,4.39
2022-12-22T16:55:50.188Z,4.42
2022-12-22T16:58:17.019Z,4.40
2022-12-22T17:00:43.905Z,4.43
2022-12-22T17:03:18.688Z,4.43
2022-12-22T17:06:05.245Z,4.45
2022-12-22T17:08:36.470Z,4.44
2022-12-22T17:11:10.106Z,4.44
2022-12-22T17:13:37.240Z,4.42
2022-12-22T17:16:05.286Z,4.40
2022-12-22T17:18:37.202Z,4.40
2022-12-22T17:21:04.351Z,4.38
2022-12-22T17:23:34.929Z,4.36
2022-12-22T17:26:02.054Z,4.36
2022-12-22T17:28:28.478Z,4.33
2022-12-22T17:30:55.495Z,4.36
2022-12-22T17:33:22.029Z,4.39
2022-12-22T17:35:48.565Z,4.39
2022-12-22T17:38:18.543Z,4.38
2022-12-22T17:40:45.256Z,4.36
2022-12-22T17:43:15.532Z,4.35
2022-12-22T17:45:42.165Z,4.32
2022-12-22T17:48:08.924Z,4.33
2022-12-22T17:50:35.554Z,4.34
2022-12-22T17:53:02.201Z,4.41
2022-12-22T17:56:05.928Z,4.43
2022-12-22T17:58:16.277Z,4.49
2022-12-22T18:00:42.878Z,4.44
2022-12-22T18:03:15.727Z,4.41
2022-12-22T18:05:46.219Z,4.42
2022-12-22T18:08:13.043Z,4.46
2022-12-22T18:10:42.699Z,4.42
2022-12-22T18:13:22.698Z,4.42
2022-12-22T18:15:49.376Z,4.42
2022-12-22T18:18:16.388Z,4.42
2022-12-22T18:20:42.991Z,4.43
2022-12-22T18:23:16.488Z,4.42
2022-12-22T18:25:43.033Z,4.44
2022-12-22T18:28:13.037Z,4.42
2022-12-22T18:30:39.535Z,4.41
2022-12-22T18:33:05.996Z,4.46
2022-12-22T18:35:32.432Z,4.43
2022-12-22T18:37:59.002Z,4.46
2022-12-22T18:40:38.245Z,4.41
2022-12-22T18:43:11.664Z,4.37
2022-12-22T18:45:38.167Z,4.39
2022-12-22T18:48:04.727Z,4.41
2022-12-22T18:50:31.380Z,4.42
2022-12-22T18:52:58.734Z,4.40
2022-12-22T18:55:26.044Z,4.39
2022-12-22T18:57:52.862Z,4.34
2022-12-22T19:00:20.973Z,4.30
2022-12-22T19:02:47.980Z,4.28
2022-12-22T19:05:18.788Z,4.24
2022-12-22T19:07:45.358Z,4.21
2022-12-22T19:10:15.450Z,4.17
2022-12-22T19:12:41.971Z,4.20
2022-12-22T19:15:12.032Z,4.27
2022-12-22T19:17:48.345Z,4.35
2022-12-22T19:20:16.280Z,4.35
2022-12-22T19:22:43.944Z,4.37
2022-12-22T19:25:17.834Z,4.35
2022-12-22T19:27:44.268Z,4.36
2022-12-22T19:30:20.920Z,4.32
2022-12-22T19:32:48.356Z,4.30
2022-12-22T19:35:15.831Z,4.32
2022-12-22T19:37:42.358Z,4.33
2022-12-22T19:40:09.285Z,4.41
2022-12-22T19:42:36.222Z,4.42
2022-12-22T20:34:36.764Z,4.16
2022-12-22T20:37:03.284Z,4.08
2022-12-22T20:39:30.453Z,4.08
2022-12-22T20:41:56.890Z,4.09
2022-12-22T20:44:23.432Z,4.14
2022-12-22T20:46:49.980Z,4.13
2022-12-22T20:49:16.552Z,4.13
2022-12-22T20:51:43.116Z,4.11
2022-12-22T20:54:12.818Z,4.07
2022-12-22T20:56:39.420Z,4.05
2022-12-22T20:59:31.921Z,4.02
2022-12-22T21:01:58.603Z,3.99
2022-12-22T21:04:25.181Z,3.97
2022-12-22T21:06:52.679Z,3.98
2022-12-22T21:09:19.214Z,3.92
2022-12-22T21:11:45.711Z,3.88
2022-12-22T21:14:12.385Z,3.87
2022-12-22T21:16:39.063Z,3.84
2022-12-22T21:19:05.602Z,3.84
2022-12-22T21:21:32.190Z,3.81
2022-12-22T21:23:58.624Z,3.79
2022-12-22T21:26:31.986Z,3.84
2022-12-22T21:28:58.706Z,3.86
2022-12-22T21:31:25.198Z,3.84
2022-12-22T21:33:51.656Z,3.81
2022-12-22T21:36:22.771Z,3.81
2022-12-22T21:38:49.731Z,3.80
2022-12-22T21:41:16.349Z,3.80
2022-12-22T21:43:42.981Z,3.78
2022-12-22T21:46:12.998Z,3.76
2022-12-22T21:48:39.642Z,3.74
2022-12-22T21:51:06.131Z,3.73
2022-12-22T21:53:32.710Z,3.71
2022-12-22T21:55:59.205Z,3.70
2022-12-22T21:58:25.749Z,3.73
2022-12-22T22:00:52.169Z,3.76
2022-12-22T22:03:18.851Z,3.77
2022-12-22T22:05:45.423Z,3.75
2022-12-22T22:08:12.105Z,3.75
2022-12-22T22:10:39.427Z,3.73
2022-12-22T22:13:05.992Z,3.75
2022-12-22T22:15:32.614Z,3.82
2022-12-22T22:18:04.670Z,3.84
2022-12-22T22:20:33.649Z,3.84
2022-12-22T22:23:00.324Z,3.86
2022-12-22T22:25:26.883Z,3.87
2022-12-22T22:27:53.425Z,3.91
2022-12-22T22:30:25.081Z,3.93
2022-12-22T22:32:51.674Z,3.91
2022-12-22T22:35:21.191Z,3.90
2022-12-22T22:37:50.643Z,3.86
2022-12-22T22:40:17.925Z,3.81
2022-12-22T22:42:44.464Z,3.81
2022-12-22T22:45:11.641Z,3.80
2022-12-22T22:47:38.448Z,3.80
2022-12-22T22:50:06.912Z,3.81
2022-12-22T22:52:38.082Z,3.84
2022-12-22T22:55:04.717Z,3.84
2022-12-22T22:57:31.196Z,3.87
2022-12-22T22:59:57.680Z,3.88
2022-12-22T23:02:24.253Z,3.89
2022-12-22T23:04:50.933Z,3.89
2022-12-22T23:07:17.431Z,3.91
2022-12-22T23:09:44.011Z,3.93
2022-12-22T23:12:10.670Z,3.94
2022-12-22T23:14:39.493Z,3.98
2022-12-22T23:17:05.964Z,3.98
2022-12-22T23:19:32.432Z,3.97
2022-12-22T23:21:58.868Z,3.97
2022-12-22T23:24:25.323Z,4.01
2022-12-22T23:26:51.820Z,4.00
2022-12-22T23:29:18.283Z,3.99
2022-12-22T23:31:44.786Z,3.99
2022-12-22T23:34:11.821Z,3.96
2022-12-22T23:36:38.273Z,3.96
2022-12-22T23:39:04.714Z,3.99
2022-12-22T23:41:31.185Z,4.01
2022-12-22T23:43:57.646Z,4.03
2022-12-22T23:46:24.121Z,4.03
2022-12-22T23:48:54.481Z,4.02
2022-12-22T23:51:21.348Z,4.00
2022-12-22T23:53:47.797Z,4.00
2022-12-22T23:56:14.321Z,4.00
2022-12-22T23:58:40.722Z,3.99
